Impacts METAR Board
IDs:

KSSF - San Antonio/Stinson, TX, US

Updated at: 1000 UTC 26 May 2019
Potential Impact None Slight Moderate High
Time 25/22Z 25/23Z 26/00Z 26/01Z 26/02Z 26/03Z 26/04Z 26/05Z 26/06Z 26/07Z 26/08Z 26/09Z 26/10Z
Temp92 90 87 85 82 79 78 77 76 77 76 76 76
Dewpt65 64 66 65 66 67 68 69 70 70 70 69 69
Altim29.93 29.91 29.93 29.94 29.95 29.97 30.00 30.00 29.99 29.98 29.98 29.98 29.98
VIS10 10 10 10 10 10 10 10 10 10 10 10 10
CIG-- -- -- -- -- -- -- 14 11 12 12 39 21
CoverCLRCLRFEWCLRCLRCLRCLRBKNOVCOVCOVCOVCOVC
FltCatVFRVFRVFRVFRVFRVFRVFRMVFRMVFRMVFRMVFRVFRMVFR
WX--------------------------
WDir140130130130120130130140150140120140150
WSpd14 16 12 14 12 11 9 11 10 8 7 7 5
WGst-- 25 -- 20 -- -- -- 16 -- -- -- -- --
Raw hourly METARs
KSSF 252153Z 14014KT 10SM CLR 33/18 A2993 RMK AO2 PK WND 13026/2120 SLP121 T03330183
KSSF 252253Z 13016G25KT 10SM CLR 32/18 A2991 RMK AO2 SLP117 T03220178
KSSF 252353Z 13012KT 10SM FEW047 31/19 A2993 RMK AO2 SLP124 T03060189 10339 20306 55001
KSSF 260053Z 13014G20KT 10SM CLR 29/18 A2994 RMK AO2 SLP126 T02940183
KSSF 260153Z 12012KT 10SM CLR 28/19 A2995 RMK AO2 SLP130 T02780189
KSSF 260253Z AUTO 13011KT 10SM CLR 26/19 A2997 RMK AO2 SLP138 T02610194 53013
KSSF 260353Z AUTO 13009KT 10SM CLR 26/20 A3000 RMK AO2 SLP146 T02560200
KSSF 260451Z AUTO 14011G16KT 10SM BKN014 25/21 A3000 RMK AO2 SLP145 T02500206
KSSF 260553Z AUTO 15010KT 10SM OVC011 24/21 A2999 RMK AO2 SLP142 T02440211 10306 20244 403390244 50005
KSSF 260653Z AUTO 14008KT 10SM OVC012 25/21 A2998 RMK AO2 SLP141 T02500211
KSSF 260753Z AUTO 12007KT 10SM BKN012 BKN018 OVC025 24/21 A2998 RMK AO2 SLP140 T02440211
KSSF 260853Z AUTO 14007KT 10SM FEW018 SCT027 OVC039 24/21 A2998 RMK AO2 SLP139 T02440206 57002
KSSF 260953Z AUTO 15005KT 10SM SCT014 BKN021 OVC035 24/21 A2998 RMK AO2 SLP141 T02440206